sensor_id;sensor_type;location;lat;lon;timestamp;pressure;altitude;pressure_sealevel;temperature;humidity
6835;BME280;3455;42.150;24.734;2022-12-18T00:02:14;66931.53;;;13.53;90.58
6835;BME280;3455;42.150;24.734;2022-12-18T00:04:41;66950.16;;;13.51;89.82
6835;BME280;3455;42.150;24.734;2022-12-18T00:07:07;66921.94;;;13.53;89.93
6835;BME280;3455;42.150;24.734;2022-12-18T00:09:34;66935.91;;;13.48;89.65
6835;BME280;3455;42.150;24.734;2022-12-18T00:12:03;66886.16;;;13.37;90.57
6835;BME280;3455;42.150;24.734;2022-12-18T00:14:30;66903.59;;;13.35;90.21
6835;BME280;3455;42.150;24.734;2022-12-18T00:16:57;66923.22;;;13.30;90.39
6835;BME280;3455;42.150;24.734;2022-12-18T00:19:26;66928.94;;;13.30;90.41
6835;BME280;3455;42.150;24.734;2022-12-18T00:21:53;66890.53;;;13.03;91.91
6835;BME280;3455;42.150;24.734;2022-12-18T00:24:20;66863.19;;;13.26;91.08
6835;BME280;3455;42.150;24.734;2022-12-18T00:26:46;66896.38;;;13.19;91.61
6835;BME280;3455;42.150;24.734;2022-12-18T00:29:14;66897.38;;;13.34;90.94
6835;BME280;3455;42.150;24.734;2022-12-18T00:31:42;66931.28;;;13.43;90.48
6835;BME280;3455;42.150;24.734;2022-12-18T00:34:10;66938.00;;;13.52;90.28
6835;BME280;3455;42.150;24.734;2022-12-18T00:36:38;66922.16;;;13.51;89.30
6835;BME280;3455;42.150;24.734;2022-12-18T00:39:05;66917.97;;;13.43;89.42
6835;BME280;3455;42.150;24.734;2022-12-18T00:41:33;66914.09;;;13.26;89.65
6835;BME280;3455;42.150;24.734;2022-12-18T00:44:19;66900.13;;;13.32;89.64
6835;BME280;3455;42.150;24.734;2022-12-18T00:46:46;66897.09;;;13.24;89.76
6835;BME280;3455;42.150;24.734;2022-12-18T00:49:14;66832.84;;;13.13;90.34
6835;BME280;3455;42.150;24.734;2022-12-18T00:51:41;66934.41;;;13.44;89.49
6835;BME280;3455;42.150;24.734;2022-12-18T00:54:08;66912.81;;;13.20;89.97
6835;BME280;3455;42.150;24.734;2022-12-18T00:56:35;66903.53;;;13.23;91.00
6835;BME280;3455;42.150;24.734;2022-12-18T00:59:03;66926.75;;;13.44;89.98
6835;BME280;3455;42.150;24.734;2022-12-18T01:01:31;66889.75;;;13.45;89.91
6835;BME280;3455;42.150;24.734;2022-12-18T01:04:00;66945.31;;;13.49;90.17
6835;BME280;3455;42.150;24.734;2022-12-18T01:06:27;66912.75;;;13.38;89.74
6835;BME280;3455;42.150;24.734;2022-12-18T01:08:54;66899.69;;;13.36;90.09
6835;BME280;3455;42.150;24.734;2022-12-18T01:11:21;66935.75;;;13.32;90.34
6835;BME280;3455;42.150;24.734;2022-12-18T01:13:48;66913.00;;;13.48;89.74
6835;BME280;3455;42.150;24.734;2022-12-18T01:16:16;66941.00;;;13.48;89.77
6835;BME280;3455;42.150;24.734;2022-12-18T01:18:44;66942.59;;;13.74;88.97
6835;BME280;3455;42.150;24.734;2022-12-18T01:21:14;66939.19;;;13.53;89.72
6835;BME280;3455;42.150;24.734;2022-12-18T01:23:41;66924.72;;;13.51;89.26
6835;BME280;3455;42.150;24.734;2022-12-18T01:26:10;66901.69;;;13.17;90.92
6835;BME280;3455;42.150;24.734;2022-12-18T01:28:37;66876.53;;;13.38;89.60
6835;BME280;3455;42.150;24.734;2022-12-18T01:31:12;66933.25;;;13.43;89.45
6835;BME280;3455;42.150;24.734;2022-12-18T01:33:39;66878.97;;;13.44;88.85
6835;BME280;3455;42.150;24.734;2022-12-18T01:36:08;66932.03;;;13.60;88.30
6835;BME280;3455;42.150;24.734;2022-12-18T01:38:40;66907.94;;;13.30;89.09
6835;BME280;3455;42.150;24.734;2022-12-18T01:41:08;66888.03;;;13.25;89.06
6835;BME280;3455;42.150;24.734;2022-12-18T01:43:50;66870.00;;;13.28;89.20
6835;BME280;3455;42.150;24.734;2022-12-18T01:46:19;66866.03;;;13.06;89.16
6835;BME280;3455;42.150;24.734;2022-12-18T01:48:47;66833.56;;;12.77;89.00
6835;BME280;3455;42.150;24.734;2022-12-18T01:51:17;66857.78;;;12.65;91.23
6835;BME280;3455;42.150;24.734;2022-12-18T01:53:45;66869.78;;;12.60;92.46
6835;BME280;3455;42.150;24.734;2022-12-18T01:56:15;66863.44;;;12.95;90.81
6835;BME280;3455;42.150;24.734;2022-12-18T01:58:50;66907.00;;;13.15;90.08
6835;BME280;3455;42.150;24.734;2022-12-18T02:01:21;66909.41;;;13.40;89.08
6835;BME280;3455;42.150;24.734;2022-12-18T02:03:48;66889.78;;;13.27;88.98
6835;BME280;3455;42.150;24.734;2022-12-18T02:06:20;66909.00;;;13.26;89.05
6835;BME280;3455;42.150;24.734;2022-12-18T02:08:59;66865.06;;;12.92;90.17
6835;BME280;3455;42.150;24.734;2022-12-18T02:11:36;66881.75;;;12.73;91.61
6835;BME280;3455;42.150;24.734;2022-12-18T02:14:11;66835.75;;;12.75;91.85
6835;BME280;3455;42.150;24.734;2022-12-18T02:16:46;66851.63;;;12.87;91.26
6835;BME280;3455;42.150;24.734;2022-12-18T02:19:34;66890.34;;;13.16;89.76
6835;BME280;3455;42.150;24.734;2022-12-18T02:22:17;66874.38;;;13.11;89.90
6835;BME280;3455;42.150;24.734;2022-12-18T02:24:58;66772.28;;;12.68;92.42
6835;BME280;3455;42.150;24.734;2022-12-18T02:27:29;66846.44;;;12.53;93.61
6835;BME280;3455;42.150;24.734;2022-12-18T02:29:59;66850.44;;;12.74;92.72
6835;BME280;3455;42.150;24.734;2022-12-18T02:32:30;66873.88;;;13.04;91.64
6835;BME280;3455;42.150;24.734;2022-12-18T02:34:59;66882.66;;;13.05;91.71
6835;BME280;3455;42.150;24.734;2022-12-18T02:37:28;66882.28;;;13.20;90.71
6835;BME280;3455;42.150;24.734;2022-12-18T02:39:57;66881.50;;;13.33;90.61
6835;BME280;3455;42.150;24.734;2022-12-18T02:42:27;66881.56;;;13.15;90.86
6835;BME280;3455;42.150;24.734;2022-12-18T02:44:54;66872.72;;;13.03;91.07
6835;BME280;3455;42.150;24.734;2022-12-18T02:47:23;66884.78;;;13.09;91.14
6835;BME280;3455;42.150;24.734;2022-12-18T02:49:58;66892.00;;;13.24;90.09
6835;BME280;3455;42.150;24.734;2022-12-18T02:52:32;66881.31;;;13.17;90.40
6835;BME280;3455;42.150;24.734;2022-12-18T02:55:12;66819.00;;;12.82;91.61
6835;BME280;3455;42.150;24.734;2022-12-18T02:57:46;66851.72;;;12.80;91.87
6835;BME280;3455;42.150;24.734;2022-12-18T03:00:17;66852.75;;;12.76;92.02
6835;BME280;3455;42.150;24.734;2022-12-18T03:02:48;66887.09;;;13.11;90.48
6835;BME280;3455;42.150;24.734;2022-12-18T03:05:18;66855.19;;;13.23;89.99
6835;BME280;3455;42.150;24.734;2022-12-18T03:07:52;66913.72;;;13.23;90.44
6835;BME280;3455;42.150;24.734;2022-12-18T03:10:26;66920.63;;;13.18;90.22
6835;BME280;3455;42.150;24.734;2022-12-18T03:13:00;66891.59;;;13.11;89.99
6835;BME280;3455;42.150;24.734;2022-12-18T03:15:31;66904.88;;;13.00;89.62
6835;BME280;3455;42.150;24.734;2022-12-18T03:18:04;66851.94;;;12.78;90.99
6835;BME280;3455;42.150;24.734;2022-12-18T03:20:34;66839.34;;;12.82;91.12
6835;BME280;3455;42.150;24.734;2022-12-18T03:23:06;66893.22;;;12.78;91.48
6835;BME280;3455;42.150;24.734;2022-12-18T03:25:35;66856.94;;;12.84;90.69
6835;BME280;3455;42.150;24.734;2022-12-18T03:28:08;66870.97;;;13.01;90.03
6835;BME280;3455;42.150;24.734;2022-12-18T03:30:38;66847.22;;;12.80;90.61
6835;BME280;3455;42.150;24.734;2022-12-18T03:33:08;66844.00;;;12.87;90.48
6835;BME280;3455;42.150;24.734;2022-12-18T03:35:39;66867.19;;;13.07;89.82
6835;BME280;3455;42.150;24.734;2022-12-18T03:38:08;66850.13;;;12.83;90.65
6835;BME280;3455;42.150;24.734;2022-12-18T03:40:43;66889.22;;;12.97;89.98
6835;BME280;3455;42.150;24.734;2022-12-18T03:43:18;66908.94;;;13.03;89.86
6835;BME280;3455;42.150;24.734;2022-12-18T03:45:51;66879.22;;;13.13;89.61
6835;BME280;3455;42.150;24.734;2022-12-18T03:48:26;66846.72;;;13.02;90.10
6835;BME280;3455;42.150;24.734;2022-12-18T03:50:57;66852.69;;;12.94;90.32
6835;BME280;3455;42.150;24.734;2022-12-18T03:53:32;66849.53;;;12.82;90.54
6835;BME280;3455;42.150;24.734;2022-12-18T03:56:02;66889.41;;;13.13;89.63
6835;BME280;3455;42.150;24.734;2022-12-18T03:58:33;66898.06;;;12.80;91.12
6835;BME280;3455;42.150;24.734;2022-12-18T04:01:03;66837.63;;;12.81;91.57
6835;BME280;3455;42.150;24.734;2022-12-18T04:03:32;66938.81;;;12.44;92.10
6835;BME280;3455;42.150;24.734;2022-12-18T04:06:01;66830.66;;;12.75;91.72
6835;BME280;3455;42.150;24.734;2022-12-18T04:08:29;66871.56;;;13.02;90.46
6835;BME280;3455;42.150;24.734;2022-12-18T04:10:56;66835.91;;;12.79;90.47
6835;BME280;3455;42.150;24.734;2022-12-18T04:13:23;66829.00;;;12.96;89.99
6835;BME280;3455;42.150;24.734;2022-12-18T04:15:51;66882.78;;;12.98;89.31
6835;BME280;3455;42.150;24.734;2022-12-18T04:18:18;66838.84;;;12.64;90.66
6835;BME280;3455;42.150;24.734;2022-12-18T04:20:45;66864.53;;;12.73;90.49
6835;BME280;3455;42.150;24.734;2022-12-18T04:23:12;66866.00;;;12.65;89.85
6835;BME280;3455;42.150;24.734;2022-12-18T04:25:39;66827.19;;;12.72;89.48
6835;BME280;3455;42.150;24.734;2022-12-18T04:28:05;66872.66;;;12.80;89.09
6835;BME280;3455;42.150;24.734;2022-12-18T04:30:32;66780.34;;;12.53;89.38
6835;BME280;3455;42.150;24.734;2022-12-18T04:33:00;66833.88;;;12.69;89.33
6835;BME280;3455;42.150;24.734;2022-12-18T04:35:27;66818.94;;;12.60;87.82
6835;BME280;3455;42.150;24.734;2022-12-18T04:37:54;66824.94;;;12.52;88.07
6835;BME280;3455;42.150;24.734;2022-12-18T04:40:21;66793.78;;;12.29;88.71
6835;BME280;3455;42.150;24.734;2022-12-18T04:42:47;66845.28;;;12.52;87.56
6835;BME280;3455;42.150;24.734;2022-12-18T04:45:14;66804.06;;;12.33;87.40
6835;BME280;3455;42.150;24.734;2022-12-18T04:47:41;66818.81;;;12.26;87.19
6835;BME280;3455;42.150;24.734;2022-12-18T04:50:09;66816.38;;;12.49;86.52
6835;BME280;3455;42.150;24.734;2022-12-18T04:52:36;66783.69;;;12.22;86.08
6835;BME280;3455;42.150;24.734;2022-12-18T04:55:03;66775.25;;;12.12;86.64
6835;BME280;3455;42.150;24.734;2022-12-18T04:57:30;66749.00;;;12.02;86.20
6835;BME280;3455;42.150;24.734;2022-12-18T04:59:57;66767.72;;;12.05;86.07
6835;BME280;3455;42.150;24.734;2022-12-18T05:02:23;66814.84;;;12.16;84.64
6835;BME280;3455;42.150;24.734;2022-12-18T05:04:50;66796.41;;;11.93;84.89
6835;BME280;3455;42.150;24.734;2022-12-18T05:07:18;66782.28;;;12.12;84.14
6835;BME280;3455;42.150;24.734;2022-12-18T05:09:45;66804.03;;;12.22;83.88
6835;BME280;3455;42.150;24.734;2022-12-18T05:12:12;66781.78;;;12.04;83.86
6835;BME280;3455;42.150;24.734;2022-12-18T05:14:38;66771.06;;;12.04;83.87
6835;BME280;3455;42.150;24.734;2022-12-18T05:17:05;66746.69;;;12.00;83.68
6835;BME280;3455;42.150;24.734;2022-12-18T05:19:32;66731.44;;;12.00;82.66
6835;BME280;3455;42.150;24.734;2022-12-18T05:21:59;66784.81;;;12.12;82.92
6835;BME280;3455;42.150;24.734;2022-12-18T05:24:28;66822.09;;;12.31;81.94
6835;BME280;3455;42.150;24.734;2022-12-18T05:26:54;66741.34;;;11.91;84.07
6835;BME280;3455;42.150;24.734;2022-12-18T05:29:21;66782.78;;;12.19;83.58
6835;BME280;3455;42.150;24.734;2022-12-18T05:31:48;66801.34;;;12.17;83.01
6835;BME280;3455;42.150;24.734;2022-12-18T05:34:15;66737.97;;;12.22;83.25
6835;BME280;3455;42.150;24.734;2022-12-18T05:36:41;66792.63;;;12.27;82.81
6835;BME280;3455;42.150;24.734;2022-12-18T05:39:08;66816.28;;;12.26;82.61
6835;BME280;3455;42.150;24.734;2022-12-18T05:41:36;66798.44;;;12.44;82.38
6835;BME280;3455;42.150;24.734;2022-12-18T05:44:03;66807.28;;;12.27;82.62
6835;BME280;3455;42.150;24.734;2022-12-18T05:46:30;66773.50;;;12.11;82.32
6835;BME280;3455;42.150;24.734;2022-12-18T05:48:59;66780.47;;;12.17;83.03
6835;BME280;3455;42.150;24.734;2022-12-18T05:51:25;66816.88;;;12.26;81.96
6835;BME280;3455;42.150;24.734;2022-12-18T05:53:52;66787.84;;;12.19;81.74
6835;BME280;3455;42.150;24.734;2022-12-18T05:56:22;66802.09;;;12.34;82.11
6835;BME280;3455;42.150;24.734;2022-12-18T05:58:52;66732.81;;;11.99;82.49
6835;BME280;3455;42.150;24.734;2022-12-18T06:01:21;66769.44;;;12.07;82.42
6835;BME280;3455;42.150;24.734;2022-12-18T06:03:49;66796.41;;;12.22;80.99
6835;BME280;3455;42.150;24.734;2022-12-18T06:06:18;66785.44;;;12.23;80.31
6835;BME280;3455;42.150;24.734;2022-12-18T06:08:47;66819.72;;;12.18;81.09
6835;BME280;3455;42.150;24.734;2022-12-18T06:11:17;66793.25;;;12.10;81.83
6835;BME280;3455;42.150;24.734;2022-12-18T06:13:45;66839.81;;;12.20;81.70
6835;BME280;3455;42.150;24.734;2022-12-18T06:16:13;66819.03;;;12.24;81.44
6835;BME280;3455;42.150;24.734;2022-12-18T06:18:40;66840.19;;;12.52;80.04
6835;BME280;3455;42.150;24.734;2022-12-18T06:21:06;66807.56;;;12.36;80.47
6835;BME280;3455;42.150;24.734;2022-12-18T06:23:33;66839.44;;;12.64;79.52
6835;BME280;3455;42.150;24.734;2022-12-18T06:26:03;66775.50;;;12.62;79.45
6835;BME280;3455;42.150;24.734;2022-12-18T06:28:30;66821.34;;;12.26;79.85
6835;BME280;3455;42.150;24.734;2022-12-18T06:30:57;66788.25;;;12.33;78.39
6835;BME280;3455;42.150;24.734;2022-12-18T06:33:27;66826.59;;;12.71;77.19
6835;BME280;3455;42.150;24.734;2022-12-18T06:35:54;66852.84;;;12.70;76.51
6835;BME280;3455;42.150;24.734;2022-12-18T06:38:25;66839.72;;;12.56;76.36
6835;BME280;3455;42.150;24.734;2022-12-18T06:40:52;66824.66;;;12.42;76.68
6835;BME280;3455;42.150;24.734;2022-12-18T06:43:19;66806.34;;;12.53;76.37
6835;BME280;3455;42.150;24.734;2022-12-18T06:45:45;66872.78;;;12.56;76.78
6835;BME280;3455;42.150;24.734;2022-12-18T06:48:14;66793.03;;;12.41;75.72
6835;BME280;3455;42.150;24.734;2022-12-18T06:50:43;66800.84;;;12.39;76.63
6835;BME280;3455;42.150;24.734;2022-12-18T06:53:10;66788.38;;;12.37;76.08
6835;BME280;3455;42.150;24.734;2022-12-18T06:55:37;66812.19;;;12.40;75.94
6835;BME280;3455;42.150;24.734;2022-12-18T06:58:03;66814.94;;;12.38;75.55
6835;BME280;3455;42.150;24.734;2022-12-18T07:00:30;66851.53;;;12.53;75.92
6835;BME280;3455;42.150;24.734;2022-12-18T07:02:57;66827.97;;;12.59;76.37
6835;BME280;3455;42.150;24.734;2022-12-18T07:05:23;66857.03;;;12.49;76.09
6835;BME280;3455;42.150;24.734;2022-12-18T07:07:52;66844.22;;;12.84;75.70
6835;BME280;3455;42.150;24.734;2022-12-18T07:10:18;66858.59;;;12.63;75.64
6835;BME280;3455;42.150;24.734;2022-12-18T07:12:46;66853.69;;;12.79;76.07
6835;BME280;3455;42.150;24.734;2022-12-18T07:15:13;66842.31;;;12.67;75.76
6835;BME280;3455;42.150;24.734;2022-12-18T07:17:40;66855.41;;;12.70;75.34
6835;BME280;3455;42.150;24.734;2022-12-18T07:20:07;66854.53;;;12.60;75.42
6835;BME280;3455;42.150;24.734;2022-12-18T07:22:34;66819.13;;;12.46;76.41
6835;BME280;3455;42.150;24.734;2022-12-18T07:25:03;66823.81;;;12.62;76.10
6835;BME280;3455;42.150;24.734;2022-12-18T07:27:30;66842.84;;;12.85;75.06
6835;BME280;3455;42.150;24.734;2022-12-18T07:29:57;66814.31;;;12.56;75.32
6835;BME280;3455;42.150;24.734;2022-12-18T07:32:23;66803.88;;;12.46;75.46
6835;BME280;3455;42.150;24.734;2022-12-18T07:34:50;66815.66;;;12.43;76.28
6835;BME280;3455;42.150;24.734;2022-12-18T07:37:17;66833.00;;;12.48;75.64
6835;BME280;3455;42.150;24.734;2022-12-18T07:39:43;66831.78;;;12.35;75.09
6835;BME280;3455;42.150;24.734;2022-12-18T07:42:12;66865.25;;;12.78;74.09
6835;BME280;3455;42.150;24.734;2022-12-18T07:44:56;66803.47;;;12.62;74.30
6835;BME280;3455;42.150;24.734;2022-12-18T07:47:23;66797.66;;;12.45;75.13
6835;BME280;3455;42.150;24.734;2022-12-18T07:49:50;66848.25;;;12.77;74.05
6835;BME280;3455;42.150;24.734;2022-12-18T07:52:17;66812.78;;;12.81;73.54
6835;BME280;3455;42.150;24.734;2022-12-18T07:54:44;66830.09;;;12.74;73.89
6835;BME280;3455;42.150;24.734;2022-12-18T07:57:17;66906.00;;;13.01;72.99
6835;BME280;3455;42.150;24.734;2022-12-18T07:59:43;66833.50;;;12.55;74.20
6835;BME280;3455;42.150;24.734;2022-12-18T08:02:10;66852.09;;;12.94;72.35
6835;BME280;3455;42.150;24.734;2022-12-18T08:04:37;66798.88;;;12.69;72.84
6835;BME280;3455;42.150;24.734;2022-12-18T08:07:04;66841.56;;;12.80;72.56
6835;BME280;3455;42.150;24.734;2022-12-18T08:09:31;66810.84;;;12.53;73.56
6835;BME280;3455;42.150;24.734;2022-12-18T08:11:57;66844.00;;;12.87;73.34
6835;BME280;3455;42.150;24.734;2022-12-18T08:14:25;66899.59;;;13.13;71.93
6835;BME280;3455;42.150;24.734;2022-12-18T08:16:52;66819.66;;;12.65;72.79
6835;BME280;3455;42.150;24.734;2022-12-18T08:19:19;66873.72;;;12.88;71.79
6835;BME280;3455;42.150;24.734;2022-12-18T08:21:46;66857.19;;;12.94;71.58
6835;BME280;3455;42.150;24.734;2022-12-18T08:24:13;66881.22;;;12.83;71.40
6835;BME280;3455;42.150;24.734;2022-12-18T08:26:39;66866.41;;;13.20;70.79
6835;BME280;3455;42.150;24.734;2022-12-18T08:29:06;66903.28;;;13.14;70.77
6835;BME280;3455;42.150;24.734;2022-12-18T08:31:34;66845.16;;;12.88;71.13
6835;BME280;3455;42.150;24.734;2022-12-18T08:34:01;66866.03;;;13.06;70.91
6835;BME280;3455;42.150;24.734;2022-12-18T08:36:28;66879.00;;;13.15;69.99
6835;BME280;3455;42.150;24.734;2022-12-18T08:38:55;66876.47;;;13.15;69.97
6835;BME280;3455;42.150;24.734;2022-12-18T08:41:22;66887.88;;;13.39;68.82
6835;BME280;3455;42.150;24.734;2022-12-18T08:43:49;66770.00;;;12.77;69.99
6835;BME280;3455;42.150;24.734;2022-12-18T08:46:37;66894.25;;;13.04;69.40
6835;BME280;3455;42.150;24.734;2022-12-18T08:49:05;66868.81;;;13.04;69.81
6835;BME280;3455;42.150;24.734;2022-12-18T08:51:32;66840.00;;;13.05;69.72
6835;BME280;3455;42.150;24.734;2022-12-18T08:53:59;66907.44;;;13.11;69.34
6835;BME280;3455;42.150;24.734;2022-12-18T08:56:27;66916.09;;;13.37;69.90
6835;BME280;3455;42.150;24.734;2022-12-18T08:58:55;66876.53;;;13.38;69.33
6835;BME280;3455;42.150;24.734;2022-12-18T09:01:23;66881.56;;;13.15;69.20
6835;BME280;3455;42.150;24.734;2022-12-18T09:03:51;66943.72;;;13.75;68.40
6835;BME280;3455;42.150;24.734;2022-12-18T09:06:20;66919.19;;;13.67;67.54
6835;BME280;3455;42.150;24.734;2022-12-18T09:08:48;66929.81;;;13.51;67.99
6835;BME280;3455;42.150;24.734;2022-12-18T09:11:20;66930.94;;;13.52;67.79
6835;BME280;3455;42.150;24.734;2022-12-18T09:13:47;66932.69;;;13.54;67.07
6835;BME280;3455;42.150;24.734;2022-12-18T09:16:14;66882.56;;;13.52;67.86
6835;BME280;3455;42.150;24.734;2022-12-18T09:18:41;66942.66;;;13.56;67.55
6835;BME280;3455;42.150;24.734;2022-12-18T09:21:11;66917.22;;;13.67;67.08
6835;BME280;3455;42.150;24.734;2022-12-18T09:23:38;66921.59;;;13.51;67.61
6835;BME280;3455;42.150;24.734;2022-12-18T09:26:05;66944.91;;;13.76;66.58
6835;BME280;3455;42.150;24.734;2022-12-18T09:28:32;66939.75;;;13.53;66.40
6835;BME280;3455;42.150;24.734;2022-12-18T09:30:59;66970.41;;;13.87;66.32
6835;BME280;3455;42.150;24.734;2022-12-18T09:33:29;66958.59;;;13.79;66.80
6835;BME280;3455;42.150;24.734;2022-12-18T09:35:56;66974.81;;;13.93;65.77
6835;BME280;3455;42.150;24.734;2022-12-18T09:38:25;66964.41;;;14.07;65.77
6835;BME280;3455;42.150;24.734;2022-12-18T09:40:53;66957.25;;;14.14;65.67
6835;BME280;3455;42.150;24.734;2022-12-18T09:43:26;66960.94;;;14.04;65.64
6835;BME280;3455;42.150;24.734;2022-12-18T09:45:59;66916.63;;;13.67;66.36
6835;BME280;3455;42.150;24.734;2022-12-18T09:48:30;66968.13;;;13.96;65.94
6835;BME280;3455;42.150;24.734;2022-12-18T09:51:01;66892.09;;;13.58;66.54
6835;BME280;3455;42.150;24.734;2022-12-18T09:53:35;66935.94;;;13.59;66.76
6835;BME280;3455;42.150;24.734;2022-12-18T09:56:05;66885.03;;;13.18;67.38
6835;BME280;3455;42.150;24.734;2022-12-18T09:58:37;66891.53;;;13.29;67.36
6835;BME280;3455;42.150;24.734;2022-12-18T10:01:10;66921.69;;;13.55;67.06
6835;BME280;3455;42.150;24.734;2022-12-18T10:03:37;66964.13;;;13.75;65.82
6835;BME280;3455;42.150;24.734;2022-12-18T10:06:08;66944.19;;;13.71;66.97
6835;BME280;3455;42.150;24.734;2022-12-18T10:08:46;66910.28;;;13.72;66.10
6835;BME280;3455;42.150;24.734;2022-12-18T10:11:32;66978.56;;;14.06;65.67
6835;BME280;3455;42.150;24.734;2022-12-18T10:14:08;66984.38;;;14.33;64.99
6835;BME280;3455;42.150;24.734;2022-12-18T10:16:43;66978.59;;;14.28;64.36
6835;BME280;3455;42.150;24.734;2022-12-18T10:19:23;66937.97;;;13.81;65.85
6835;BME280;3455;42.150;24.734;2022-12-18T10:22:00;66979.44;;;13.97;65.66
6835;BME280;3455;42.150;24.734;2022-12-18T10:24:35;66958.16;;;14.06;65.74
6835;BME280;3455;42.150;24.734;2022-12-18T10:27:12;66934.50;;;13.78;65.84
6835;BME280;3455;42.150;24.734;2022-12-18T10:29:41;66943.72;;;13.75;66.47
6835;BME280;3455;42.150;24.734;2022-12-18T10:32:14;66903.84;;;13.85;66.55
6835;BME280;3455;42.150;24.734;2022-12-18T10:34:45;66999.59;;;13.88;66.38
6835;BME280;3455;42.150;24.734;2022-12-18T10:37:16;66958.50;;;14.08;66.48
6835;BME280;3455;42.150;24.734;2022-12-18T10:39:45;66996.50;;;14.10;65.81
6835;BME280;3455;42.150;24.734;2022-12-18T10:42:19;66970.47;;;14.21;65.80
6835;BME280;3455;42.150;24.734;2022-12-18T10:44:46;66939.69;;;13.71;65.93
6835;BME280;3455;42.150;24.734;2022-12-18T10:47:27;66909.00;;;13.67;66.59
6835;BME280;3455;42.150;24.734;2022-12-18T10:49:54;66924.59;;;13.58;66.04
6835;BME280;3455;42.150;24.734;2022-12-18T10:52:22;66858.69;;;13.27;66.22
6835;BME280;3455;42.150;24.734;2022-12-18T10:54:55;66883.03;;;13.48;66.21
6835;BME280;3455;42.150;24.734;2022-12-18T10:57:32;66859.66;;;13.41;65.35
6835;BME280;3455;42.150;24.734;2022-12-18T11:00:18;66914.75;;;13.49;65.33
6835;BME280;3455;42.150;24.734;2022-12-18T11:02:46;66849.78;;;12.92;67.17
6835;BME280;3455;42.150;24.734;2022-12-18T11:05:24;66894.28;;;13.15;66.59
6835;BME280;3455;42.150;24.734;2022-12-18T11:07:52;66870.38;;;12.90;68.61
6835;BME280;3455;42.150;24.734;2022-12-18T11:10:22;66790.75;;;12.62;69.18
6835;BME280;3455;42.150;24.734;2022-12-18T11:12:49;66852.09;;;12.94;69.10
6835;BME280;3455;42.150;24.734;2022-12-18T11:15:20;66825.16;;;12.90;70.54
6835;BME280;3455;42.150;24.734;2022-12-18T11:17:49;66798.38;;;12.62;72.10
6835;BME280;3455;42.150;24.734;2022-12-18T11:20:27;66811.16;;;12.44;74.26
6835;BME280;3455;42.150;24.734;2022-12-18T11:22:58;66784.94;;;12.45;75.67
6835;BME280;3455;42.150;24.734;2022-12-18T11:25:29;66834.47;;;12.69;76.17
6835;BME280;3455;42.150;24.734;2022-12-18T11:27:58;66842.06;;;12.58;76.30
6835;BME280;3455;42.150;24.734;2022-12-18T11:30:27;66793.63;;;12.24;77.80
6835;BME280;3455;42.150;24.734;2022-12-18T11:33:04;66762.97;;;12.37;77.46
6835;BME280;3455;42.150;24.734;2022-12-18T11:35:43;66805.69;;;12.30;77.39
6835;BME280;3455;42.150;24.734;2022-12-18T11:38:18;66790.66;;;12.28;78.56
6835;BME280;3455;42.150;24.734;2022-12-18T11:40:53;66812.53;;;12.43;78.70
6835;BME280;3455;42.150;24.734;2022-12-18T11:43:25;66762.19;;;12.10;80.73
6835;BME280;3455;42.150;24.734;2022-12-18T11:45:55;66806.13;;;12.26;80.27
6835;BME280;3455;42.150;24.734;2022-12-18T11:48:27;66828.75;;;12.28;80.36
6835;BME280;3455;42.150;24.734;2022-12-18T11:50:57;66818.25;;;12.55;79.99
6835;BME280;3455;42.150;24.734;2022-12-18T11:53:26;66832.72;;;12.68;78.51
6835;BME280;3455;42.150;24.734;2022-12-18T11:56:03;66837.63;;;12.81;78.06
6835;BME280;3455;42.150;24.734;2022-12-18T11:58:45;66867.50;;;12.98;76.91
6835;BME280;3455;42.150;24.734;2022-12-18T12:01:20;66864.56;;;12.84;75.48
6835;BME280;3455;42.150;24.734;2022-12-18T12:04:08;66831.25;;;12.75;74.22
6835;BME280;3455;42.150;24.734;2022-12-18T12:06:46;66963.78;;;12.66;74.14
6835;BME280;3455;42.150;24.734;2022-12-18T12:09:22;66842.50;;;12.54;74.33
6835;BME280;3455;42.150;24.734;2022-12-18T12:12:05;66847.28;;;12.62;72.93
6835;BME280;3455;42.150;24.734;2022-12-18T12:14:45;66831.69;;;12.71;71.44
6835;BME280;3455;42.150;24.734;2022-12-18T12:17:24;66775.25;;;12.12;73.20
6835;BME280;3455;42.150;24.734;2022-12-18T12:20:00;66734.53;;;11.90;72.13
6835;BME280;3455;42.150;24.734;2022-12-18T12:22:35;66824.94;;;12.52;71.42
6835;BME280;3455;42.150;24.734;2022-12-18T12:25:17;67103.84;;;12.82;68.83
6835;BME280;3455;42.150;24.734;2022-12-18T12:27:56;66867.09;;;12.84;68.78
6835;BME280;3455;42.150;24.734;2022-12-18T12:30:33;66846.38;;;12.71;69.84
6835;BME280;3455;42.150;24.734;2022-12-18T12:33:17;66831.25;;;12.75;70.35
6835;BME280;3455;42.150;24.734;2022-12-18T12:36:00;66860.22;;;13.01;69.44
6835;BME280;3455;42.150;24.734;2022-12-18T12:38:36;66827.78;;;12.72;68.67
6835;BME280;3455;42.150;24.734;2022-12-18T12:41:10;66917.88;;;12.62;69.55
6835;BME280;3455;42.150;24.734;2022-12-18T12:44:04;66839.31;;;12.71;68.89
6835;BME280;3455;42.150;24.734;2022-12-18T12:46:35;66832.88;;;12.72;69.70
6835;BME280;3455;42.150;24.734;2022-12-18T12:49:07;66812.72;;;12.59;68.32
6835;BME280;3455;42.150;24.734;2022-12-18T12:51:40;66822.78;;;12.36;69.78
6835;BME280;3455;42.150;24.734;2022-12-18T12:54:13;66795.34;;;12.43;69.30
6835;BME280;3455;42.150;24.734;2022-12-18T12:56:45;66809.22;;;12.56;68.55
6835;BME280;3455;42.150;24.734;2022-12-18T12:59:22;66810.53;;;12.32;68.90
6835;BME280;3455;42.150;24.734;2022-12-18T13:01:54;66802.28;;;12.50;69.94
6835;BME280;3455;42.150;24.734;2022-12-18T13:04:30;66762.03;;;12.34;69.48
6835;BME280;3455;42.150;24.734;2022-12-18T13:07:04;66837.88;;;12.50;68.55
6835;BME280;3455;42.150;24.734;2022-12-18T13:09:33;66780.84;;;12.31;68.76
6835;BME280;3455;42.150;24.734;2022-12-18T13:12:02;66791.84;;;12.40;68.29
6835;BME280;3455;42.150;24.734;2022-12-18T13:14:48;66762.78;;;11.92;69.90
6835;BME280;3455;42.150;24.734;2022-12-18T13:17:29;66765.53;;;12.49;67.81
6835;BME280;3455;42.150;24.734;2022-12-18T13:20:08;66811.53;;;12.58;67.33
6835;BME280;3455;42.150;24.734;2022-12-18T13:22:37;66790.69;;;12.39;67.95
6835;BME280;3455;42.150;24.734;2022-12-18T13:25:29;66753.25;;;12.33;68.39
6835;BME280;3455;42.150;24.734;2022-12-18T13:28:01;66801.75;;;12.31;67.58